X  Close Metar Aviation Weather Data     EBBR Brussels Airport
Temperature
17°C Temperature
14°C Dewpoint
83% Humidity



Wind
11 KM/H
7 MPH
3 M/S
6 KTS



40°
NE
Current Conditions

Mostly Scattered Clouds Mostly Scattered Clouds
Pressure 1010.92 (hPa) - 29.85 (inHg)
Visibility 6.2 (mile) - 10 (km)
Airport
Airport-code EBBR

Location: Brussels Airport
Distance: 14 (km)

Metar:
EBBR 211450Z 04006KT 9999 SCT011 BKN017 17/14 Q1011 NOSIG

Time: 2021-06-21 16:50 CEST